createdAt,value
2022-12-08T00:00:15.091Z,-1.65
2022-12-08T00:02:55.149Z,-1.63
2022-12-08T00:06:07.084Z,-1.61
2022-12-08T00:09:19.078Z,-1.59
2022-12-08T00:12:18.075Z,-1.59
2022-12-08T00:14:54.777Z,-1.61
2022-12-08T00:17:41.071Z,-1.61
2022-12-08T00:20:22.074Z,-1.61
2022-12-08T00:23:16.068Z,-1.61
2022-12-08T00:26:04.087Z,-1.63
2022-12-08T00:28:45.103Z,-1.64
2022-12-08T00:31:32.160Z,-1.65
2022-12-08T00:34:07.884Z,-1.74
2022-12-08T00:36:54.090Z,-1.74
2022-12-08T00:39:34.106Z,-1.76
2022-12-08T00:42:28.106Z,-1.79
2022-12-08T00:45:15.114Z,-1.80
2022-12-08T00:47:55.126Z,-1.82
2022-12-08T00:50:42.084Z,-1.83
2022-12-08T00:53:22.123Z,-1.84
2022-12-08T00:56:16.100Z,-1.89
2022-12-08T00:59:03.123Z,-1.90
2022-12-08T01:01:43.121Z,-1.91
2022-12-08T01:04:37.133Z,-1.95
2022-12-08T01:07:24.079Z,-2.01
2022-12-08T01:09:58.069Z,-2.03
2022-12-08T01:12:45.116Z,-2.03
2022-12-08T01:15:18.386Z,-2.04
2022-12-08T01:18:05.135Z,-2.07
2022-12-08T01:20:38.168Z,-2.09
2022-12-08T01:23:25.090Z,-2.08
2022-12-08T01:25:58.388Z,-2.09
2022-12-08T01:28:53.110Z,-2.09
2022-12-08T01:31:47.117Z,-2.11
2022-12-08T01:34:34.109Z,-2.11
2022-12-08T01:37:15.181Z,-2.13
2022-12-08T01:40:02.527Z,-2.17
2022-12-08T01:42:45.116Z,-2.22
2022-12-08T01:45:37.130Z,-2.27
2022-12-08T01:48:26.177Z,-2.34
2022-12-08T01:51:14.127Z,-2.33
2022-12-08T01:53:54.155Z,-2.35
2022-12-08T01:57:02.129Z,-2.44
2022-12-08T01:59:44.200Z,-2.45
2022-12-08T02:02:43.247Z,-2.48
2022-12-08T02:05:40.111Z,-2.50
2022-12-08T02:08:35.114Z,-2.53
2022-12-08T02:11:29.112Z,-2.54
2022-12-08T02:14:27.097Z,-2.56
2022-12-08T02:17:50.128Z,-2.58
2022-12-08T02:20:51.114Z,-2.60
2022-12-08T02:24:04.180Z,-2.64
2022-12-08T02:26:49.232Z,-2.68
2022-12-08T02:30:00.169Z,-2.69
2022-12-08T02:33:22.107Z,-2.74
2022-12-08T02:36:45.127Z,-2.75
2022-12-08T02:39:51.119Z,-2.79
2022-12-08T02:43:00.147Z,-2.80
2022-12-08T02:45:52.255Z,-2.82
2022-12-08T02:48:41.156Z,-2.81
2022-12-08T02:51:14.208Z,-2.78
2022-12-08T02:54:02.127Z,-2.76
2022-12-08T02:56:41.213Z,-2.76
2022-12-08T02:59:37.140Z,-2.69
2022-12-08T03:02:16.554Z,-2.68
2022-12-08T03:05:11.140Z,-2.68
2022-12-08T03:08:02.235Z,-2.70
2022-12-08T03:10:56.136Z,-2.73
2022-12-08T03:13:41.203Z,-2.75
2022-12-08T03:16:36.155Z,-2.80
2022-12-08T03:19:29.209Z,-2.80
2022-12-08T03:22:18.151Z,-2.79
2022-12-08T03:24:53.208Z,-2.81
2022-12-08T03:27:40.151Z,-2.80
2022-12-08T03:30:14.282Z,-2.83
2022-12-08T03:33:08.167Z,-2.88
2022-12-08T03:35:53.149Z,-2.94
2022-12-08T03:38:56.157Z,-3.02
2022-12-08T03:41:43.165Z,-3.08
2022-12-08T03:44:16.248Z,-3.11
2022-12-08T03:47:03.151Z,-3.09
2022-12-08T03:49:43.135Z,-3.11
2022-12-08T03:52:31.214Z,-3.08
2022-12-08T03:55:04.247Z,-3.11
2022-12-08T03:57:51.150Z,-3.15
2022-12-08T04:00:31.171Z,-3.20
2022-12-08T04:03:25.191Z,-3.19
2022-12-08T04:06:20.161Z,-3.24
2022-12-08T04:09:14.173Z,-3.22
2022-12-08T04:12:01.156Z,-3.24
2022-12-08T04:14:34.274Z,-3.24
2022-12-08T04:17:21.145Z,-3.27
2022-12-08T04:19:54.309Z,-3.30
2022-12-08T04:22:41.148Z,-3.31
2022-12-08T04:25:22.140Z,-3.30
2022-12-08T04:28:09.170Z,-3.33
2022-12-08T04:30:49.167Z,-3.32
2022-12-08T04:33:36.175Z,-3.32
2022-12-08T04:36:18.167Z,-3.32
2022-12-08T04:39:05.172Z,-3.32
2022-12-08T04:41:38.408Z,-3.30
2022-12-08T04:44:25.165Z,-3.30
2022-12-08T04:46:58.320Z,-3.31
2022-12-08T04:49:45.160Z,-3.28
2022-12-08T04:52:25.197Z,-3.28
2022-12-08T04:55:19.169Z,-3.32
2022-12-08T04:58:06.166Z,-3.31
2022-12-08T05:00:40.248Z,-3.33
2022-12-08T05:03:28.818Z,-3.34
2022-12-08T05:06:02.272Z,-3.40
2022-12-08T05:08:50.161Z,-3.42
2022-12-08T05:11:31.181Z,-3.44
2022-12-08T05:14:27.168Z,-3.46
2022-12-08T05:17:21.161Z,-3.52
2022-12-08T05:20:08.177Z,-3.60
2022-12-08T05:22:48.163Z,-3.67
2022-12-08T05:25:36.200Z,-3.69
2022-12-08T05:28:40.293Z,-3.70
2022-12-08T05:31:32.264Z,-3.68
2022-12-08T05:34:26.173Z,-3.67
2022-12-08T05:37:20.174Z,-3.69
2022-12-08T05:40:07.565Z,-3.68
2022-12-08T05:42:41.261Z,-3.73
2022-12-08T05:45:28.218Z,-3.78
2022-12-08T05:48:08.185Z,-3.83
2022-12-08T05:50:56.201Z,-3.91
2022-12-08T05:53:36.194Z,-3.92
2022-12-08T05:56:23.173Z,-3.89
2022-12-08T05:59:04.190Z,-3.88
2022-12-08T06:01:51.229Z,-3.89
2022-12-08T06:04:24.267Z,-3.91
2022-12-08T06:07:15.925Z,-3.92
2022-12-08T06:09:56.191Z,-3.90
2022-12-08T06:12:50.186Z,-3.91
2022-12-08T06:15:37.179Z,-3.94
2022-12-08T06:18:11.742Z,-3.95
2022-12-08T06:20:58.200Z,-3.92
2022-12-08T06:23:38.211Z,-3.86
2022-12-08T06:26:32.183Z,-3.83
2022-12-08T06:29:26.172Z,-3.82
2022-12-08T06:32:25.844Z,-3.78
2022-12-08T06:35:16.185Z,-3.72
2022-12-08T06:37:51.500Z,-3.66
2022-12-08T06:40:38.193Z,-3.61
2022-12-08T06:43:18.216Z,-3.56
2022-12-08T06:46:12.222Z,-3.52
2022-12-08T06:48:59.212Z,-3.44
2022-12-08T06:51:32.275Z,-3.37
2022-12-08T06:54:19.200Z,-3.30
2022-12-08T06:56:59.208Z,-3.23
2022-12-08T06:59:53.241Z,-3.12
2022-12-08T07:02:40.242Z,-3.06
2022-12-08T07:05:13.279Z,-3.05
2022-12-08T07:08:00.252Z,-3.00
2022-12-08T07:10:33.275Z,-2.99
2022-12-08T07:13:20.237Z,-2.99
2022-12-08T07:16:00.220Z,-2.99
2022-12-08T07:18:48.227Z,-2.96
2022-12-08T07:21:29.184Z,-2.97
2022-12-08T07:24:23.218Z,-2.99
2022-12-08T07:27:10.224Z,-2.99
2022-12-08T07:29:43.307Z,-3.02
2022-12-08T07:32:30.217Z,-2.97
2022-12-08T07:35:03.316Z,-2.91
2022-12-08T07:37:50.207Z,-2.86
2022-12-08T07:40:23.505Z,-2.82
2022-12-08T07:43:10.249Z,-2.78
2022-12-08T07:45:43.337Z,-2.77
2022-12-08T07:48:30.234Z,-2.78
2022-12-08T07:51:08.338Z,-2.75
2022-12-08T07:53:56.212Z,-2.74
2022-12-08T07:56:37.223Z,-2.69
2022-12-08T07:59:31.207Z,-2.65
2022-12-08T08:02:25.325Z,-2.57
2022-12-08T08:05:00.444Z,-2.45
2022-12-08T08:07:53.325Z,-2.35
2022-12-08T08:10:26.376Z,-2.25
2022-12-08T08:13:13.225Z,-2.16
2022-12-08T08:15:47.449Z,-2.04
2022-12-08T08:18:34.241Z,-1.98
2022-12-08T08:21:43.068Z,-1.92
2022-12-08T08:24:15.229Z,-1.79
2022-12-08T08:26:55.264Z,-1.68
2022-12-08T08:29:49.248Z,-1.59
2022-12-08T08:32:40.225Z,-1.51
2022-12-08T08:35:21.240Z,-1.43
2022-12-08T08:38:08.248Z,-1.37
2022-12-08T08:40:41.322Z,-1.29
2022-12-08T08:43:38.596Z,-1.22
2022-12-08T08:46:13.325Z,-1.16
2022-12-08T08:49:00.237Z,-1.06
2022-12-08T08:51:40.223Z,-0.96
2022-12-08T08:54:34.280Z,-0.88
2022-12-08T08:57:25.520Z,-0.79
2022-12-08T09:00:07.569Z,-0.73
2022-12-08T09:03:01.274Z,-0.67
2022-12-08T09:05:48.293Z,-0.59
2022-12-08T09:08:21.367Z,-0.54
2022-12-08T09:11:08.241Z,-0.48
2022-12-08T09:13:42.407Z,-0.45
2022-12-08T09:16:29.286Z,-0.39
2022-12-08T09:19:02.573Z,-0.37
2022-12-08T09:21:49.261Z,-0.30
2022-12-08T09:24:23.199Z,-0.23
2022-12-08T09:27:10.250Z,-0.15
2022-12-08T09:29:43.334Z,-0.10
2022-12-08T09:32:30.275Z,-0.02
2022-12-08T09:35:11.248Z,0.07
2022-12-08T09:38:05.266Z,0.14
2022-12-08T09:41:00.267Z,0.24
2022-12-08T09:43:53.382Z,0.32
2022-12-08T09:46:41.269Z,0.42
2022-12-08T09:49:24.362Z,0.51
2022-12-08T09:52:13.261Z,0.59
2022-12-08T09:54:49.379Z,0.65
2022-12-08T09:57:38.258Z,0.68
2022-12-08T10:00:14.514Z,0.71
2022-12-08T10:03:02.256Z,0.76
2022-12-08T10:05:46.239Z,0.80
2022-12-08T10:08:48.269Z,0.85
2022-12-08T10:11:53.286Z,0.84
2022-12-08T10:14:40.309Z,0.85
2022-12-08T10:17:50.283Z,0.83
2022-12-08T10:20:58.288Z,0.81
2022-12-08T10:23:36.338Z,0.79
2022-12-08T10:26:26.289Z,0.73
2022-12-08T10:29:01.439Z,0.73
2022-12-08T10:31:49.336Z,0.67
2022-12-08T10:34:26.347Z,0.64
2022-12-08T10:37:16.290Z,0.61
2022-12-08T10:39:57.299Z,0.59
2022-12-08T10:42:47.280Z,0.54
2022-12-08T10:45:48.318Z,0.54
2022-12-08T10:48:44.291Z,0.50
2022-12-08T10:51:36.289Z,0.46
2022-12-08T10:54:09.363Z,0.46
2022-12-08T10:57:02.295Z,0.45
2022-12-08T10:59:35.367Z,0.45
2022-12-08T11:02:27.389Z,0.46
2022-12-08T11:05:05.364Z,0.47
2022-12-08T11:08:00.415Z,0.48
2022-12-08T11:11:04.338Z,0.47
2022-12-08T11:13:58.291Z,0.48
2022-12-08T11:16:49.414Z,0.49
2022-12-08T11:19:24.370Z,0.51
2022-12-08T11:22:48.311Z,0.49
2022-12-08T11:25:26.417Z,0.50
2022-12-08T11:28:17.300Z,0.48
2022-12-08T11:30:57.626Z,0.48
2022-12-08T11:33:44.290Z,0.48
2022-12-08T11:36:28.299Z,0.46
2022-12-08T11:39:19.296Z,0.43
2022-12-08T11:41:53.412Z,0.41
2022-12-08T11:44:47.297Z,0.44
2022-12-08T11:47:55.569Z,0.45
2022-12-08T11:51:02.316Z,0.43
2022-12-08T11:53:54.426Z,0.44
2022-12-08T11:56:45.314Z,0.46
2022-12-08T11:59:36.291Z,0.47
2022-12-08T12:02:41.360Z,0.47
2022-12-08T12:06:12.565Z,0.49
2022-12-08T12:08:56.398Z,0.48
2022-12-08T12:12:23.306Z,0.47
2022-12-08T12:15:15.459Z,0.45
2022-12-08T12:18:39.310Z,0.45
2022-12-08T12:21:27.594Z,0.44
2022-12-08T12:24:31.574Z,0.43
2022-12-08T12:27:20.315Z,0.40
2022-12-08T12:30:18.327Z,0.40
2022-12-08T12:33:11.302Z,0.39
2022-12-08T12:35:56.320Z,0.38
2022-12-08T12:39:14.345Z,0.38
2022-12-08T12:42:16.346Z,0.35
2022-12-08T12:45:23.322Z,0.34
2022-12-08T12:47:59.945Z,0.33
2022-12-08T12:50:52.321Z,0.30
2022-12-08T12:53:25.390Z,0.29
2022-12-08T12:56:14.317Z,0.27
2022-12-08T12:58:49.258Z,0.26
2022-12-08T13:01:44.414Z,0.23
2022-12-08T13:04:17.384Z,0.21
2022-12-08T13:07:05.337Z,0.18
2022-12-08T13:09:42.549Z,0.16
2022-12-08T13:12:31.318Z,0.12
2022-12-08T13:15:18.356Z,0.10
2022-12-08T13:18:05.335Z,0.07
2022-12-08T13:20:48.424Z,0.06
2022-12-08T13:23:43.334Z,0.04
2022-12-08T13:26:38.378Z,0.03
2022-12-08T13:29:36.328Z,0.00
2022-12-08T13:33:16.286Z,-0.04
2022-12-08T13:36:04.355Z,-0.06
2022-12-08T13:38:53.326Z,-0.07
2022-12-08T13:41:30.445Z,-0.09
2022-12-08T13:49:03.333Z,-0.10
2022-12-08T13:55:49.560Z,-0.16
2022-12-08T13:57:50.399Z,-0.16
2022-12-08T14:00:44.339Z,-0.18
2022-12-08T14:03:38.390Z,-0.21
2022-12-08T14:06:39.350Z,-0.23
2022-12-08T14:09:30.392Z,-0.25
2022-12-08T14:12:08.475Z,-0.27
2022-12-08T14:15:03.861Z,-0.28
2022-12-08T14:17:37.703Z,-0.29
2022-12-08T14:20:31.348Z,-0.29
2022-12-08T14:23:12.366Z,-0.32
2022-12-08T14:26:06.355Z,-0.37
2022-12-08T14:28:53.478Z,-0.39
2022-12-08T14:31:26.470Z,-0.40
2022-12-08T14:34:13.356Z,-0.42
2022-12-08T14:36:46.506Z,-0.44
2022-12-08T14:39:34.369Z,-0.47
2022-12-08T14:42:14.351Z,-0.45
2022-12-08T14:45:21.369Z,-0.48
2022-12-08T14:47:54.438Z,-0.49
2022-12-08T14:51:08.363Z,-0.51
2022-12-08T14:53:53.624Z,-0.55
2022-12-08T14:56:43.371Z,-0.59
2022-12-08T14:59:25.447Z,-0.61
2022-12-08T15:02:31.372Z,-0.66
2022-12-08T15:05:20.489Z,-0.70
2022-12-08T15:08:10.482Z,-0.71
2022-12-08T15:10:54.382Z,-0.73
2022-12-08T15:13:48.390Z,-0.78
2022-12-08T15:16:38.407Z,-0.85
2022-12-08T15:19:47.375Z,-0.87
2022-12-08T15:22:35.397Z,-0.87
2022-12-08T15:25:08.799Z,-0.89
2022-12-08T15:27:55.392Z,-0.88
2022-12-08T15:30:35.380Z,-0.87
2022-12-08T15:33:22.385Z,-0.89
2022-12-08T15:35:57.465Z,-0.91
2022-12-08T15:38:44.391Z,-0.93
2022-12-08T15:41:17.456Z,-0.92
2022-12-08T15:44:04.409Z,-0.97
2022-12-08T15:46:37.510Z,-0.99
2022-12-08T15:49:29.420Z,-1.03
2022-12-08T15:52:11.276Z,-1.07
2022-12-08T15:54:58.412Z,-1.10
2022-12-08T15:58:24.920Z,-1.14
2022-12-08T16:00:53.450Z,-1.19
2022-12-08T16:09:48.541Z,-1.22
2022-12-08T16:15:58.997Z,-1.32
2022-12-08T16:18:49.408Z,-1.35
2022-12-08T16:22:04.684Z,-1.38
2022-12-08T16:24:43.411Z,-1.36
2022-12-08T16:28:00.355Z,-1.32
2022-12-08T16:30:36.429Z,-1.27
2022-12-08T16:33:30.452Z,-1.24
2022-12-08T16:36:24.415Z,-1.21
2022-12-08T16:39:18.431Z,-1.21
2022-12-08T16:42:23.414Z,-1.18
2022-12-08T16:45:03.822Z,-1.17
2022-12-08T16:47:56.392Z,-1.17
2022-12-08T16:50:32.522Z,-1.20
2022-12-08T16:53:19.392Z,-1.19
2022-12-08T16:55:54.496Z,-1.19
2022-12-08T16:58:41.462Z,-1.19
2022-12-08T17:01:26.595Z,-1.20
2022-12-08T17:04:31.367Z,-1.14
2022-12-08T17:07:18.391Z,-1.08
2022-12-08T17:09:51.511Z,-1.07
2022-12-08T17:12:38.415Z,-1.06
2022-12-08T17:15:14.486Z,-1.09
2022-12-08T17:18:01.399Z,-1.12
2022-12-08T17:20:36.270Z,-1.14
2022-12-08T17:23:23.430Z,-1.18
2022-12-08T17:26:09.515Z,-1.22
2022-12-08T17:29:01.150Z,-1.26
2022-12-08T17:31:35.688Z,-1.29
2022-12-08T17:34:22.429Z,-1.29
2022-12-08T17:36:55.766Z,-1.31
2022-12-08T17:39:43.418Z,-1.32
2022-12-08T17:42:16.518Z,-1.29
2022-12-08T17:45:03.602Z,-1.28
2022-12-08T17:47:36.522Z,-1.28
2022-12-08T17:50:23.479Z,-1.28
2022-12-08T17:52:57.519Z,-1.29
2022-12-08T17:55:45.757Z,-1.27
2022-12-08T17:58:18.528Z,-1.26
2022-12-08T18:01:05.467Z,-1.23
2022-12-08T18:03:38.558Z,-1.22
2022-12-08T18:06:29.596Z,-1.21
2022-12-08T18:09:13.460Z,-1.22
2022-12-08T18:12:00.419Z,-1.23
2022-12-08T18:14:40.462Z,-1.22
2022-12-08T18:17:34.504Z,-1.20
2022-12-08T18:20:21.443Z,-1.20
2022-12-08T18:23:01.463Z,-1.20
2022-12-08T18:25:55.545Z,-1.24
2022-12-08T18:28:43.445Z,-1.25
2022-12-08T18:31:19.646Z,-1.26
2022-12-08T18:34:06.447Z,-1.29
2022-12-08T18:36:46.443Z,-1.28
2022-12-08T18:39:39.458Z,-1.24
2022-12-08T18:42:24.595Z,-1.21
2022-12-08T18:45:15.746Z,-1.17
2022-12-08T18:47:52.575Z,-1.16
2022-12-08T18:50:39.433Z,-1.14
2022-12-08T18:53:12.546Z,-1.10
2022-12-08T18:55:59.511Z,-1.07
2022-12-08T18:58:32.536Z,-1.05
2022-12-08T19:01:22.497Z,-1.04
2022-12-08T19:07:17.444Z,-1.05
2022-12-08T19:10:06.045Z,-1.04
2022-12-08T19:12:39.594Z,-1.07
2022-12-08T19:15:27.496Z,-1.09
2022-12-08T19:18:07.475Z,-1.10
2022-12-08T19:21:03.533Z,-1.11
2022-12-08T19:23:50.452Z,-1.10
2022-12-08T19:26:24.540Z,-1.09
2022-12-08T19:29:11.447Z,-1.09
2022-12-08T19:31:44.637Z,-1.07
2022-12-08T19:34:31.477Z,-1.06
2022-12-08T19:37:04.553Z,-1.06
2022-12-08T19:40:09.464Z,-1.09
2022-12-08T19:43:07.454Z,-1.13
2022-12-08T19:45:54.610Z,-1.13
2022-12-08T19:48:34.518Z,-1.13
2022-12-08T19:51:21.473Z,-1.16
2022-12-08T19:54:01.472Z,-1.20
2022-12-08T19:56:48.448Z,-1.20
2022-12-08T19:59:28.498Z,-1.20
2022-12-08T20:02:24.615Z,-1.20
2022-12-08T20:05:19.471Z,-1.21
2022-12-08T20:08:13.499Z,-1.21
2022-12-08T20:11:07.469Z,-1.16
2022-12-08T20:14:01.496Z,-1.14
2022-12-08T20:16:48.548Z,-1.15
2022-12-08T20:19:21.697Z,-1.14
2022-12-08T20:22:08.482Z,-1.14
2022-12-08T20:24:41.554Z,-1.13
2022-12-08T20:27:30.469Z,-1.11
2022-12-08T20:30:04.174Z,-1.09
2022-12-08T20:33:05.497Z,-1.05
2022-12-08T20:36:00.529Z,-1.02
2022-12-08T20:38:47.520Z,-0.99
2022-12-08T20:41:23.355Z,-0.97
2022-12-08T20:44:11.498Z,-0.92
2022-12-08T20:46:49.203Z,-0.89
2022-12-08T20:49:36.515Z,-0.86
2022-12-08T20:52:09.728Z,-0.85
2022-12-08T20:54:56.541Z,-0.81
2022-12-08T20:57:30.914Z,-0.80
2022-12-08T21:00:17.696Z,-0.82
2022-12-08T21:02:56.254Z,-0.81
2022-12-08T21:05:45.579Z,-0.79
2022-12-08T21:08:19.653Z,-0.76
2022-12-08T21:11:06.588Z,-0.76
2022-12-08T21:13:46.516Z,-0.77
2022-12-08T21:16:33.597Z,-0.77
2022-12-08T21:19:06.719Z,-0.79
2022-12-08T21:21:53.533Z,-0.78
2022-12-08T21:24:34.668Z,-0.80
2022-12-08T21:27:28.504Z,-0.78
2022-12-08T21:30:23.532Z,-0.80
2022-12-08T21:33:10.654Z,-0.80
2022-12-08T21:35:44.936Z,-0.81
2022-12-08T21:38:31.542Z,-0.85
2022-12-08T21:41:22.513Z,-0.86
2022-12-08T21:44:16.729Z,-0.86
2022-12-08T21:47:03.647Z,-0.86
2022-12-08T21:49:36.765Z,-0.83
2022-12-08T21:52:23.632Z,-0.83
2022-12-08T21:54:56.780Z,-0.83
2022-12-08T21:57:43.784Z,-0.79
2022-12-08T22:00:28.805Z,-0.75
2022-12-08T22:03:19.722Z,-0.71
2022-12-08T22:06:00.588Z,-0.69
2022-12-08T22:08:48.693Z,-0.66
2022-12-08T22:11:28.634Z,-0.66
2022-12-08T22:14:22.522Z,-0.63
2022-12-08T22:17:09.594Z,-0.60
2022-12-08T22:19:50.690Z,-0.58
2022-12-08T22:22:46.566Z,-0.58
2022-12-08T22:25:33.521Z,-0.56
2022-12-08T22:28:06.781Z,-0.55
2022-12-08T22:30:53.805Z,-0.53
2022-12-08T22:33:26.645Z,-0.52
2022-12-08T22:36:14.531Z,-0.53
2022-12-08T22:38:47.873Z,-0.50
2022-12-08T22:41:34.541Z,-0.48
2022-12-08T22:44:14.569Z,-0.50
2022-12-08T22:47:01.711Z,-0.52
2022-12-08T22:49:36.537Z,-0.51
2022-12-08T22:52:23.530Z,-0.51
2022-12-08T22:54:56.728Z,-0.49
2022-12-08T22:57:43.652Z,-0.48
2022-12-08T23:00:18.909Z,-0.48
2022-12-08T23:03:05.795Z,-0.48
2022-12-08T23:05:44.712Z,-0.47
2022-12-08T23:08:31.699Z,-0.45
2022-12-08T23:11:04.636Z,-0.44
2022-12-08T23:13:51.606Z,-0.44
2022-12-08T23:16:24.672Z,-0.42
2022-12-08T23:19:29.629Z,-0.41
2022-12-08T23:22:28.732Z,-0.40
2022-12-08T23:25:24.636Z,-0.37
2022-12-08T23:28:11.738Z,-0.34
2022-12-08T23:30:48.779Z,-0.38
2022-12-08T23:33:42.719Z,-0.42
2022-12-08T23:36:32.576Z,-0.42
2022-12-08T23:39:05.686Z,-0.42
2022-12-08T23:41:52.805Z,-0.42
2022-12-08T23:44:26.009Z,-0.42
2022-12-08T23:47:12.658Z,-0.40
2022-12-08T23:49:45.698Z,-0.41
2022-12-08T23:52:32.668Z,-0.39
2022-12-08T23:55:12.644Z,-0.38
2022-12-08T23:57:59.562Z,-0.39
